Bookmark and Share
Track history (hours):
 

Sansumifuku

Last reported at 2014-Apr-10 09:12 UTC. Time now 2014-Apr-16 16:04 UTC.
Position N 34°35' E 134°52'.

Length 75 m; draft 4.3 m.

Type: Cargo ship. MMSI: 431000426.

NotesDate/timePositionNaut miles runAvg speedWind from/ knotsBaromVisibWave heightAir tempDewpointWater temp
2014-Apr-10 09:12N 34°35' E 134°52'913.3
2014-Apr-10 08:33N 34°37' E 135°02'9 9.2
2014-Apr-10 07:33N 34°41' E 135°12'0 0.0
2014-Apr-10 06:33N 34°41' E 135°12'0 0.4
2014-Apr-10 05:27N 34°40' E 135°12'0 0.0
2014-Apr-10 04:33N 34°40' E 135°12'0 0.1
2014-Apr-10 03:33N 34°40' E 135°12'1 0.6
2014-Apr-10 02:33N 34°40' E 135°12'0 0.0
2014-Apr-10 01:33N 34°40' E 135°12'0 0.0
2014-Apr-10 00:27N 34°40' E 135°12'0 0.0
2014-Apr-09 23:33N 34°40' E 135°12'0 0.0
2014-Apr-09 22:33N 34°40' E 135°12'0 0.0
2014-Apr-09 21:33N 34°40' E 135°12'0 0.0
2014-Apr-09 20:33N 34°40' E 135°12'0 0.0
2014-Apr-09 19:33N 34°40' E 135°12'0 0.0
2014-Apr-09 18:21N 34°40' E 135°12'0 0.0
2014-Apr-09 17:27N 34°40' E 135°12'0 0.0
2014-Apr-09 16:27N 34°40' E 135°12'0 0.0
2014-Apr-09 15:33N 34°40' E 135°12'0 0.0
2014-Apr-09 14:34N 34°40' E 135°12'6 6.2
2014-Apr-09 13:34N 34°36' E 135°18'7 6.8
2014-Apr-09 12:28N 34°35' E 135°27'0 0.0
2014-Apr-09 07:31N 34°35' E 135°27'0 0.0
2014-Apr-09 06:16N 34°35' E 135°27'1 0.5
2014-Apr-09 04:23N 34°35' E 135°27'0 0.0
2014-Apr-08 23:29N 34°35' E 135°27'0 0.0
2014-Apr-08 21:11N 34°35' E 135°27'4 6.2
2014-Apr-08 20:33N 34°36' E 135°22'1211.7
2014-Apr-08 19:33N 34°28' E 135°12'1211.9
2014-Apr-08 18:32N 34°18' E 135°04'4 4.1
2014-Apr-08 17:30N 34°15' E 135°07'0 0.0
2014-Apr-08 16:31N 34°15' E 135°07'0 0.0
2014-Apr-08 15:28N 34°15' E 135°07'0 0.0
2014-Apr-08 14:31N 34°15' E 135°07'0 0.0
2014-Apr-08 13:28N 34°15' E 135°07'0 0.0
2014-Apr-08 12:28N 34°15' E 135°07'0 0.0
2014-Apr-08 11:31N 34°15' E 135°07'0 0.0
2014-Apr-08 10:31N 34°15' E 135°07'0 0.0
2014-Apr-08 09:31N 34°15' E 135°07'0 0.0
2014-Apr-08 08:28N 34°15' E 135°07'0 0.0
2014-Apr-08 07:31N 34°15' E 135°07'0 0.0
2014-Apr-08 06:31N 34°15' E 135°07'0 0.5
2014-Apr-08 05:33N 34°14' E 135°07'1 0.7
2014-Apr-08 04:28N 34°15' E 135°06'0 0.0
2014-Apr-08 03:31N 34°15' E 135°06'0 0.0
2014-Apr-08 02:31N 34°15' E 135°06'0 0.0
2014-Apr-08 01:25N 34°15' E 135°06'0 0.0
2014-Apr-08 00:22N 34°15' E 135°06'0 0.1
2014-Apr-07 23:31N 34°15' E 135°06'0 0.0
2014-Apr-07 22:31N 34°15' E 135°06'0 0.0
2014-Apr-07 21:31N 34°15' E 135°06'0 0.0
2014-Apr-07 20:31N 34°15' E 135°06'0 0.0
2014-Apr-07 19:31N 34°15' E 135°06'0 0.0
2014-Apr-07 17:28N 34°15' E 135°06'1 0.9
2014-Apr-07 16:33N 34°15' E 135°07'0 0.0
2014-Apr-07 15:30N 34°15' E 135°07'0 0.0
2014-Apr-07 14:32N 34°15' E 135°07'0 0.0
2014-Apr-07 13:32N 34°15' E 135°07'1 0.5
2014-Apr-07 12:33N 34°14' E 135°07'1 0.6
2014-Apr-07 10:06N 34°15' E 135°06'0 0.0
2014-Apr-07 09:33N 34°15' E 135°06'3 3.0
2014-Apr-07 08:33N 34°17' E 135°03'1212.0
2014-Apr-07 07:33N 34°27' E 135°11'1211.8
2014-Apr-07 06:33N 34°37' E 135°19'6 6.5
2014-Apr-07 05:33N 34°42' E 135°24'0 0.0
2014-Apr-07 03:29N 34°42' E 135°24'0 0.0
2014-Apr-07 02:29N 34°42' E 135°24'0 0.0
2014-Apr-07 01:11N 34°42' E 135°24'0 0.0
2014-Apr-07 00:23N 34°42' E 135°24'6 6.6
2014-Apr-06 23:32N 34°37' E 135°19'1111.4
2014-Apr-06 22:33N 34°28' E 135°12'1410.4
2014-Apr-06 21:11N 34°16' E 135°02'711.4
2014-Apr-06 20:33N 34°09' E 135°01'230 8.8
2014-Apr-05 18:31N 34°50' E 139°36'2311.2
2014-Apr-05 16:27N 34°56' E 140°03'29 9.5
2014-Apr-05 13:24N 35°16' E 140°30'41 8.0
2014-Apr-05 08:15N 35°55' E 140°41'1 1.2
2014-Apr-05 07:07N 35°56' E 140°40'0 0.0
2014-Apr-04 02:20N 35°56' E 140°40'0 0.0
2014-Apr-04 01:32N 35°56' E 140°40'0 0.0
2014-Apr-04 00:32N 35°56' E 140°40'0 0.0
2014-Apr-03 23:26N 35°56' E 140°40'0 0.0
2014-Apr-03 22:32N 35°56' E 140°40'0 0.0
2014-Apr-03 21:20N 35°56' E 140°40'0 0.0
2014-Apr-03 20:26N 35°56' E 140°40'0 0.0
2014-Apr-03 19:26N 35°56' E 140°40'0 0.0
2014-Apr-03 18:26N 35°56' E 140°40'0 0.0
2014-Apr-03 17:32N 35°56' E 140°40'0 0.0
2014-Apr-03 16:32N 35°56' E 140°40'0 0.0
2014-Apr-03 15:29N 35°56' E 140°40'0 0.0
2014-Apr-03 14:20N 35°56' E 140°40'0 0.0
2014-Apr-03 13:08N 35°56' E 140°40'0 0.0
2014-Apr-03 12:32N 35°56' E 140°40'0 0.0
2014-Apr-03 10:26N 35°56' E 140°40'0 0.0
2014-Apr-03 09:26N 35°56' E 140°40'0 0.0
2014-Apr-03 08:32N 35°56' E 140°40'0 0.0
2014-Apr-03 07:26N 35°56' E 140°40'0 0.0
2014-Apr-03 06:14N 35°56' E 140°40'0 0.0
2014-Apr-03 05:14N 35°56' E 140°40'0 0.0
2014-Apr-03 04:26N 35°56' E 140°40'0 0.0
2014-Apr-03 03:32N 35°56' E 140°40'0 0.0
2014-Apr-03 02:32N 35°56' E 140°40'0 0.0
2014-Apr-03 01:32N 35°56' E 140°40'0 0.0
2014-Apr-03 00:26N 35°56' E 140°40'0 0.0
2014-Apr-02 23:32N 35°56' E 140°40'0 0.0
2014-Apr-02 22:29N 35°56' E 140°40'0 0.0
2014-Apr-02 21:26N 35°56' E 140°40'0 0.0
2014-Apr-02 20:32N 35°56' E 140°40'0 0.0
2014-Apr-02 19:32N 35°56' E 140°40'0 0.0
2014-Apr-02 18:32N 35°56' E 140°40'0 0.0
2014-Apr-02 17:26N 35°56' E 140°40'0 0.0
2014-Apr-02 16:32N 35°56' E 140°40'0 0.0
2014-Apr-02 14:08N 35°56' E 140°40'0 0.0
2014-Apr-02 13:08N 35°56' E 140°40'0 0.0
2014-Apr-02 12:20N 35°56' E 140°40'0 0.0
2014-Apr-02 11:32N 35°56' E 140°40'0 0.0
2014-Apr-02 10:32N 35°56' E 140°40'0 0.0
2014-Apr-02 09:20N 35°56' E 140°40'  

Dump ship's entire track history

sailing weather and tide predictions

Sansumifuku — JD2579 — position and weather